sensor_id;sensor_type;location;lat;lon;timestamp;pressure;altitude;pressure_sealevel;temperature;humidity
37778;BME280;23615;51.506;7.678;2023-05-02T00:02:11;100208.34;;;12.12;91.80
37778;BME280;23615;51.506;7.678;2023-05-02T00:04:36;100201.56;;;11.97;92.87
37778;BME280;23615;51.506;7.678;2023-05-02T00:07:02;100204.72;;;12.06;92.52
37778;BME280;23615;51.506;7.678;2023-05-02T00:09:28;100198.44;;;12.01;92.65
37778;BME280;23615;51.506;7.678;2023-05-02T00:11:53;100202.31;;;12.16;91.66
37778;BME280;23615;51.506;7.678;2023-05-02T00:14:19;100200.81;;;12.20;90.84
37778;BME280;23615;51.506;7.678;2023-05-02T00:16:44;100203.34;;;12.15;91.53
37778;BME280;23615;51.506;7.678;2023-05-02T00:19:10;100202.53;;;12.15;91.63
37778;BME280;23615;51.506;7.678;2023-05-02T00:21:35;100206.75;;;12.11;91.68
37778;BME280;23615;51.506;7.678;2023-05-02T00:24:00;100208.19;;;11.95;91.89
37778;BME280;23615;51.506;7.678;2023-05-02T00:26:26;100198.06;;;11.97;92.04
37778;BME280;23615;51.506;7.678;2023-05-02T00:28:51;100205.16;;;11.91;92.31
37778;BME280;23615;51.506;7.678;2023-05-02T00:31:17;100202.88;;;12.07;91.97
37778;BME280;23615;51.506;7.678;2023-05-02T00:33:42;100215.53;;;11.99;91.91
37778;BME280;23615;51.506;7.678;2023-05-02T00:36:14;100219.84;;;12.12;91.56
37778;BME280;23615;51.506;7.678;2023-05-02T00:38:40;100220.28;;;11.97;91.79
37778;BME280;23615;51.506;7.678;2023-05-02T00:41:05;100227.97;;;12.06;92.14
37778;BME280;23615;51.506;7.678;2023-05-02T00:43:31;100223.94;;;11.85;92.80
37778;BME280;23615;51.506;7.678;2023-05-02T00:45:56;100233.25;;;11.82;92.93
37778;BME280;23615;51.506;7.678;2023-05-02T00:48:23;100235.13;;;11.63;93.27
37778;BME280;23615;51.506;7.678;2023-05-02T00:50:49;100231.25;;;11.78;93.54
37778;BME280;23615;51.506;7.678;2023-05-02T00:53:15;100237.63;;;11.77;93.28
37778;BME280;23615;51.506;7.678;2023-05-02T00:55:40;100230.94;;;11.68;94.33
37778;BME280;23615;51.506;7.678;2023-05-02T00:58:09;100230.22;;;11.60;94.15
37778;BME280;23615;51.506;7.678;2023-05-02T01:03:16;100236.31;;;11.31;95.77
37778;BME280;23615;51.506;7.678;2023-05-02T01:06:34;100233.44;;;11.33;96.28
37778;BME280;23615;51.506;7.678;2023-05-02T01:08:53;100242.25;;;11.33;96.29
37778;BME280;23615;51.506;7.678;2023-05-02T01:11:47;100246.13;;;11.37;96.19
37778;BME280;23615;51.506;7.678;2023-05-02T01:14:13;100246.13;;;11.37;96.87
37778;BME280;23615;51.506;7.678;2023-05-02T01:16:40;100244.84;;;11.21;97.15
37778;BME280;23615;51.506;7.678;2023-05-02T01:19:26;100244.94;;;11.33;97.18
37778;BME280;23615;51.506;7.678;2023-05-02T01:21:54;100250.41;;;11.56;96.09
37778;BME280;23615;51.506;7.678;2023-05-02T01:24:59;100243.50;;;11.49;95.72
37778;BME280;23615;51.506;7.678;2023-05-02T01:27:55;100250.88;;;11.35;96.50
37778;BME280;23615;51.506;7.678;2023-05-02T01:30:23;100251.38;;;11.25;96.93
37778;BME280;23615;51.506;7.678;2023-05-02T01:32:51;100250.97;;;11.29;96.50
37778;BME280;23615;51.506;7.678;2023-05-02T01:35:19;100261.09;;;11.38;96.33
37778;BME280;23615;51.506;7.678;2023-05-02T01:37:46;100260.97;;;11.33;96.25
37778;BME280;23615;51.506;7.678;2023-05-02T01:40:15;100260.44;;;11.24;96.76
37778;BME280;23615;51.506;7.678;2023-05-02T01:42:42;100262.22;;;11.31;96.59
37778;BME280;23615;51.506;7.678;2023-05-02T01:45:10;100266.91;;;11.35;96.79
37778;BME280;23615;51.506;7.678;2023-05-02T01:47:36;100269.78;;;11.34;97.10
37778;BME280;23615;51.506;7.678;2023-05-02T01:50:06;100265.09;;;11.29;97.05
37778;BME280;23615;51.506;7.678;2023-05-02T01:52:32;100259.91;;;11.16;97.01
37778;BME280;23615;51.506;7.678;2023-05-02T01:54:59;100267.75;;;11.29;97.14
37778;BME280;23615;51.506;7.678;2023-05-02T01:57:24;100274.81;;;11.23;97.29
37778;BME280;23615;51.506;7.678;2023-05-02T01:59:50;100276.56;;;11.11;97.93
37778;BME280;23615;51.506;7.678;2023-05-02T02:02:17;100285.09;;;11.02;98.38
37778;BME280;23615;51.506;7.678;2023-05-02T02:04:46;100275.47;;;11.01;98.64
37778;BME280;23615;51.506;7.678;2023-05-02T02:07:13;100289.75;;;10.88;99.12
37778;BME280;23615;51.506;7.678;2023-05-02T02:09:39;100290.50;;;10.95;99.30
37778;BME280;23615;51.506;7.678;2023-05-02T02:14:42;100304.72;;;10.89;99.08
37778;BME280;23615;51.506;7.678;2023-05-02T02:17:23;100306.41;;;10.83;99.80
37778;BME280;23615;51.506;7.678;2023-05-02T02:19:52;100307.94;;;10.73;100.00
37778;BME280;23615;51.506;7.678;2023-05-02T02:22:18;100302.81;;;10.96;99.93
37778;BME280;23615;51.506;7.678;2023-05-02T02:24:45;100305.56;;;10.90;99.42
37778;BME280;23615;51.506;7.678;2023-05-02T02:27:11;100314.03;;;11.05;98.46
37778;BME280;23615;51.506;7.678;2023-05-02T02:29:37;100316.97;;;10.97;98.87
37778;BME280;23615;51.506;7.678;2023-05-02T02:32:02;100315.84;;;10.86;99.04
37778;BME280;23615;51.506;7.678;2023-05-02T02:34:27;100322.59;;;10.88;99.27
37778;BME280;23615;51.506;7.678;2023-05-02T02:37:00;100316.03;;;10.84;99.32
37778;BME280;23615;51.506;7.678;2023-05-02T02:39:43;100314.19;;;10.85;99.45
37778;BME280;23615;51.506;7.678;2023-05-02T02:42:20;100320.63;;;11.02;99.35
37778;BME280;23615;51.506;7.678;2023-05-02T02:45:04;100324.84;;;10.92;99.32
37778;BME280;23615;51.506;7.678;2023-05-02T02:47:49;100322.81;;;10.87;99.08
37778;BME280;23615;51.506;7.678;2023-05-02T02:50:29;100329.88;;;10.75;99.77
37778;BME280;23615;51.506;7.678;2023-05-02T02:53:04;100339.09;;;10.79;99.90
37778;BME280;23615;51.506;7.678;2023-05-02T03:00:51;100337.53;;;10.71;100.00
37778;BME280;23615;51.506;7.678;2023-05-02T03:03:19;100343.78;;;10.83;100.00
37778;BME280;23615;51.506;7.678;2023-05-02T03:05:47;100343.13;;;10.63;100.00
37778;BME280;23615;51.506;7.678;2023-05-02T03:08:13;100344.72;;;10.96;100.00
37778;BME280;23615;51.506;7.678;2023-05-02T03:10:38;100343.94;;;10.88;99.99
37778;BME280;23615;51.506;7.678;2023-05-02T03:13:03;100345.41;;;10.84;100.00
37778;BME280;23615;51.506;7.678;2023-05-02T03:18:09;100353.53;;;10.71;100.00
37778;BME280;23615;51.506;7.678;2023-05-02T03:20:34;100349.16;;;10.77;100.00
37778;BME280;23615;51.506;7.678;2023-05-02T03:23:00;100354.34;;;10.72;100.00
37778;BME280;23615;51.506;7.678;2023-05-02T03:25:25;100346.78;;;10.69;100.00
37778;BME280;23615;51.506;7.678;2023-05-02T03:27:50;100365.13;;;10.83;100.00
37778;BME280;23615;51.506;7.678;2023-05-02T03:30:16;100359.63;;;10.78;100.00
37778;BME280;23615;51.506;7.678;2023-05-02T03:32:41;100357.84;;;10.72;100.00
37778;BME280;23615;51.506;7.678;2023-05-02T03:35:07;100368.41;;;10.85;100.00
37778;BME280;23615;51.506;7.678;2023-05-02T03:37:33;100361.09;;;10.74;99.78
37778;BME280;23615;51.506;7.678;2023-05-02T03:39:59;100362.34;;;10.72;99.76
37778;BME280;23615;51.506;7.678;2023-05-02T03:42:24;100367.84;;;10.77;100.00
37778;BME280;23615;51.506;7.678;2023-05-02T03:44:52;100364.53;;;10.81;100.00
37778;BME280;23615;51.506;7.678;2023-05-02T03:47:18;100368.88;;;10.76;100.00
37778;BME280;23615;51.506;7.678;2023-05-02T03:49:43;100367.78;;;10.83;100.00
37778;BME280;23615;51.506;7.678;2023-05-02T03:52:08;100367.44;;;10.80;100.00
37778;BME280;23615;51.506;7.678;2023-05-02T03:54:34;100375.81;;;10.83;100.00
37778;BME280;23615;51.506;7.678;2023-05-02T03:56:59;100367.59;;;10.85;99.99
37778;BME280;23615;51.506;7.678;2023-05-02T03:59:25;100374.28;;;10.94;100.00
37778;BME280;23615;51.506;7.678;2023-05-02T04:01:51;100371.03;;;10.92;99.54
37778;BME280;23615;51.506;7.678;2023-05-02T04:04:16;100376.53;;;10.97;99.21
37778;BME280;23615;51.506;7.678;2023-05-02T04:06:42;100374.50;;;10.93;99.47
37778;BME280;23615;51.506;7.678;2023-05-02T04:09:07;100381.88;;;10.97;99.69
37778;BME280;23615;51.506;7.678;2023-05-02T04:11:32;100387.47;;;10.89;99.77
37778;BME280;23615;51.506;7.678;2023-05-02T04:13:58;100388.50;;;10.88;99.61
37778;BME280;23615;51.506;7.678;2023-05-02T04:16:24;100384.34;;;10.99;99.47
37778;BME280;23615;51.506;7.678;2023-05-02T04:18:49;100392.16;;;10.94;99.72
37778;BME280;23615;51.506;7.678;2023-05-02T04:21:14;100399.97;;;10.95;99.89
37778;BME280;23615;51.506;7.678;2023-05-02T04:23:40;100394.66;;;10.88;99.93
37778;BME280;23615;51.506;7.678;2023-05-02T04:26:05;100401.84;;;10.88;99.83
37778;BME280;23615;51.506;7.678;2023-05-02T04:28:31;100400.63;;;10.91;99.57
37778;BME280;23615;51.506;7.678;2023-05-02T04:30:56;100403.22;;;10.97;99.46
37778;BME280;23615;51.506;7.678;2023-05-02T04:33:22;100411.38;;;10.77;99.59
37778;BME280;23615;51.506;7.678;2023-05-02T04:35:48;100411.59;;;10.76;100.00
37778;BME280;23615;51.506;7.678;2023-05-02T04:38:13;100415.31;;;10.68;100.00
37778;BME280;23615;51.506;7.678;2023-05-02T04:40:39;100419.06;;;10.61;100.00
37778;BME280;23615;51.506;7.678;2023-05-02T04:43:05;100419.47;;;10.64;100.00
37778;BME280;23615;51.506;7.678;2023-05-02T04:45:30;100429.69;;;10.67;100.00
37778;BME280;23615;51.506;7.678;2023-05-02T04:47:56;100428.47;;;10.70;100.00
37778;BME280;23615;51.506;7.678;2023-05-02T04:50:21;100431.53;;;10.73;100.00
37778;BME280;23615;51.506;7.678;2023-05-02T04:52:47;100438.53;;;10.68;100.00
37778;BME280;23615;51.506;7.678;2023-05-02T04:55:12;100436.50;;;10.63;100.00
37778;BME280;23615;51.506;7.678;2023-05-02T04:57:37;100435.81;;;10.74;100.00
37778;BME280;23615;51.506;7.678;2023-05-02T05:00:04;100445.84;;;10.79;100.00
37778;BME280;23615;51.506;7.678;2023-05-02T05:02:30;100448.53;;;10.79;100.00
37778;BME280;23615;51.506;7.678;2023-05-02T05:04:55;100447.28;;;10.81;100.00
37778;BME280;23615;51.506;7.678;2023-05-02T05:07:20;100448.94;;;10.76;100.00
37778;BME280;23615;51.506;7.678;2023-05-02T05:09:46;100456.94;;;10.82;100.00
37778;BME280;23615;51.506;7.678;2023-05-02T05:12:11;100464.97;;;10.76;100.00
37778;BME280;23615;51.506;7.678;2023-05-02T05:14:37;100467.81;;;10.81;100.00
37778;BME280;23615;51.506;7.678;2023-05-02T05:17:02;100462.94;;;10.71;100.00
37778;BME280;23615;51.506;7.678;2023-05-02T05:19:27;100465.56;;;10.78;100.00
37778;BME280;23615;51.506;7.678;2023-05-02T05:21:53;100473.00;;;10.69;100.00
37778;BME280;23615;51.506;7.678;2023-05-02T05:24:18;100480.19;;;10.69;100.00
37778;BME280;23615;51.506;7.678;2023-05-02T05:26:43;100476.66;;;10.75;100.00
37778;BME280;23615;51.506;7.678;2023-05-02T05:29:09;100477.47;;;10.82;100.00
37778;BME280;23615;51.506;7.678;2023-05-02T05:31:34;100488.84;;;10.64;100.00
37778;BME280;23615;51.506;7.678;2023-05-02T05:33:59;100495.13;;;10.76;100.00
37778;BME280;23615;51.506;7.678;2023-05-02T05:36:26;100505.56;;;10.84;100.00
37778;BME280;23615;51.506;7.678;2023-05-02T05:38:52;100502.31;;;10.82;100.00
37778;BME280;23615;51.506;7.678;2023-05-02T05:41:17;100501.13;;;10.72;100.00
37778;BME280;23615;51.506;7.678;2023-05-02T05:43:42;100509.13;;;10.72;100.00
37778;BME280;23615;51.506;7.678;2023-05-02T05:46:08;100513.34;;;10.41;100.00
37778;BME280;23615;51.506;7.678;2023-05-02T05:48:33;100517.25;;;10.45;100.00
37778;BME280;23615;51.506;7.678;2023-05-02T05:51:02;100509.84;;;10.41;100.00
37778;BME280;23615;51.506;7.678;2023-05-02T05:53:29;100515.56;;;10.51;100.00
37778;BME280;23615;51.506;7.678;2023-05-02T05:55:54;100529.72;;;10.52;100.00
37778;BME280;23615;51.506;7.678;2023-05-02T05:58:19;100539.84;;;10.17;100.00
37778;BME280;23615;51.506;7.678;2023-05-02T06:00:44;100550.31;;;10.05;100.00
37778;BME280;23615;51.506;7.678;2023-05-02T06:03:10;100551.97;;;9.80;100.00
37778;BME280;23615;51.506;7.678;2023-05-02T06:05:35;100545.22;;;9.90;100.00
37778;BME280;23615;51.506;7.678;2023-05-02T06:08:01;100547.69;;;9.79;100.00
37778;BME280;23615;51.506;7.678;2023-05-02T06:10:26;100554.63;;;9.86;100.00
37778;BME280;23615;51.506;7.678;2023-05-02T06:12:51;100546.25;;;9.83;100.00
37778;BME280;23615;51.506;7.678;2023-05-02T06:15:17;100556.69;;;9.84;100.00
37778;BME280;23615;51.506;7.678;2023-05-02T06:17:42;100544.41;;;9.83;100.00
37778;BME280;23615;51.506;7.678;2023-05-02T06:20:07;100552.59;;;9.82;100.00
37778;BME280;23615;51.506;7.678;2023-05-02T06:22:33;100552.19;;;9.91;100.00
37778;BME280;23615;51.506;7.678;2023-05-02T06:24:59;100559.16;;;9.99;100.00
37778;BME280;23615;51.506;7.678;2023-05-02T06:27:25;100562.59;;;10.12;100.00
37778;BME280;23615;51.506;7.678;2023-05-02T06:29:51;100572.66;;;10.30;100.00
37778;BME280;23615;51.506;7.678;2023-05-02T06:32:16;100572.66;;;10.30;100.00
37778;BME280;23615;51.506;7.678;2023-05-02T06:34:42;100582.94;;;10.27;100.00
37778;BME280;23615;51.506;7.678;2023-05-02T06:37:08;100575.09;;;10.52;100.00
37778;BME280;23615;51.506;7.678;2023-05-02T06:39:33;100586.38;;;10.54;100.00
37778;BME280;23615;51.506;7.678;2023-05-02T06:41:58;100582.69;;;10.55;100.00
37778;BME280;23615;51.506;7.678;2023-05-02T06:44:24;100585.94;;;10.57;100.00
37778;BME280;23615;51.506;7.678;2023-05-02T06:46:49;100589.03;;;10.47;100.00
37778;BME280;23615;51.506;7.678;2023-05-02T06:49:15;100598.47;;;10.49;99.51
37778;BME280;23615;51.506;7.678;2023-05-02T06:51:40;100604.91;;;10.29;99.63
37778;BME280;23615;51.506;7.678;2023-05-02T06:54:06;100608.38;;;10.36;100.00
37778;BME280;23615;51.506;7.678;2023-05-02T06:56:31;100623.34;;;10.30;100.00
37778;BME280;23615;51.506;7.678;2023-05-02T06:58:56;100617.59;;;10.07;100.00
37778;BME280;23615;51.506;7.678;2023-05-02T07:01:22;100620.50;;;10.19;100.00
37778;BME280;23615;51.506;7.678;2023-05-02T07:03:47;100631.53;;;10.16;100.00
37778;BME280;23615;51.506;7.678;2023-05-02T07:06:12;100635.66;;;10.25;100.00
37778;BME280;23615;51.506;7.678;2023-05-02T07:08:38;100631.13;;;10.32;100.00
37778;BME280;23615;51.506;7.678;2023-05-02T07:11:03;100629.72;;;10.36;100.00
37778;BME280;23615;51.506;7.678;2023-05-02T07:13:28;100639.97;;;10.26;100.00
37778;BME280;23615;51.506;7.678;2023-05-02T07:15:54;100643.03;;;10.36;99.04
37778;BME280;23615;51.506;7.678;2023-05-02T07:18:20;100644.88;;;10.22;99.88
37778;BME280;23615;51.506;7.678;2023-05-02T07:20:46;100651.03;;;10.29;100.00
37778;BME280;23615;51.506;7.678;2023-05-02T07:23:11;100655.56;;;10.29;99.80
37778;BME280;23615;51.506;7.678;2023-05-02T07:25:36;100658.41;;;10.21;99.67
37778;BME280;23615;51.506;7.678;2023-05-02T07:28:02;100664.16;;;10.24;100.00
37778;BME280;23615;51.506;7.678;2023-05-02T07:30:27;100661.91;;;10.21;100.00
37778;BME280;23615;51.506;7.678;2023-05-02T07:32:53;100674.84;;;10.18;100.00
37778;BME280;23615;51.506;7.678;2023-05-02T07:35:18;100670.53;;;10.36;100.00
37778;BME280;23615;51.506;7.678;2023-05-02T07:37:43;100664.97;;;10.51;100.00
37778;BME280;23615;51.506;7.678;2023-05-02T07:40:09;100662.34;;;10.38;98.44
37778;BME280;23615;51.506;7.678;2023-05-02T07:42:34;100667.03;;;10.29;99.48
37778;BME280;23615;51.506;7.678;2023-05-02T07:45:00;100675.88;;;10.36;100.00
37778;BME280;23615;51.506;7.678;2023-05-02T07:47:26;100681.19;;;10.43;100.00
37778;BME280;23615;51.506;7.678;2023-05-02T07:49:52;100681.16;;;10.56;100.00
37778;BME280;23615;51.506;7.678;2023-05-02T07:52:18;100681.22;;;10.36;97.79
37778;BME280;23615;51.506;7.678;2023-05-02T07:54:44;100685.47;;;10.57;97.83
37778;BME280;23615;51.506;7.678;2023-05-02T07:57:11;100679.31;;;10.70;97.84
37778;BME280;23615;51.506;7.678;2023-05-02T07:59:37;100688.38;;;10.49;97.59
37778;BME280;23615;51.506;7.678;2023-05-02T08:02:02;100713.59;;;10.20;98.15
37778;BME280;23615;51.506;7.678;2023-05-02T08:04:28;100722.34;;;9.94;96.32
37778;BME280;23615;51.506;7.678;2023-05-02T08:06:53;100731.16;;;9.27;97.02
37778;BME280;23615;51.506;7.678;2023-05-02T08:09:19;100726.03;;;9.32;97.21
37778;BME280;23615;51.506;7.678;2023-05-02T08:11:44;100732.72;;;9.15;97.87
37778;BME280;23615;51.506;7.678;2023-05-02T08:14:09;100748.53;;;8.89;98.07
37778;BME280;23615;51.506;7.678;2023-05-02T08:16:34;100752.66;;;8.91;96.68
37778;BME280;23615;51.506;7.678;2023-05-02T08:19:00;100758.59;;;8.66;99.06
37778;BME280;23615;51.506;7.678;2023-05-02T08:21:25;100760.78;;;8.55;99.48
37778;BME280;23615;51.506;7.678;2023-05-02T08:23:56;100764.44;;;8.54;99.99
37778;BME280;23615;51.506;7.678;2023-05-02T08:26:21;100785.13;;;8.59;98.87
37778;BME280;23615;51.506;7.678;2023-05-02T08:28:49;100774.59;;;8.44;98.88
37778;BME280;23615;51.506;7.678;2023-05-02T08:31:15;100774.94;;;8.41;99.81
37778;BME280;23615;51.506;7.678;2023-05-02T08:33:40;100781.78;;;8.50;99.38
37778;BME280;23615;51.506;7.678;2023-05-02T08:36:16;100785.97;;;8.38;100.00
37778;BME280;23615;51.506;7.678;2023-05-02T08:38:43;100788.34;;;8.12;100.00
37778;BME280;23615;51.506;7.678;2023-05-02T08:41:17;100797.22;;;8.19;100.00
37778;BME280;23615;51.506;7.678;2023-05-02T08:43:44;100803.59;;;8.24;100.00
37778;BME280;23615;51.506;7.678;2023-05-02T08:46:11;100803.22;;;8.27;100.00
37778;BME280;23615;51.506;7.678;2023-05-02T08:48:39;100812.13;;;8.35;100.00
37778;BME280;23615;51.506;7.678;2023-05-02T08:51:10;100810.50;;;8.19;100.00
37778;BME280;23615;51.506;7.678;2023-05-02T08:53:37;100818.44;;;8.34;100.00
37778;BME280;23615;51.506;7.678;2023-05-02T08:56:03;100818.38;;;8.48;100.00
37778;BME280;23615;51.506;7.678;2023-05-02T08:58:29;100817.94;;;8.45;100.00
37778;BME280;23615;51.506;7.678;2023-05-02T09:01:00;100821.03;;;8.48;100.00
37778;BME280;23615;51.506;7.678;2023-05-02T09:03:33;100828.41;;;8.46;100.00
37778;BME280;23615;51.506;7.678;2023-05-02T09:06:11;100829.16;;;8.61;100.00
37778;BME280;23615;51.506;7.678;2023-05-02T09:08:37;100841.81;;;8.59;100.00
37778;BME280;23615;51.506;7.678;2023-05-02T09:11:04;100838.31;;;8.59;100.00
37778;BME280;23615;51.506;7.678;2023-05-02T09:13:31;100843.78;;;8.51;100.00
37778;BME280;23615;51.506;7.678;2023-05-02T09:16:01;100845.59;;;8.50;100.00
37778;BME280;23615;51.506;7.678;2023-05-02T09:18:29;100849.47;;;8.69;100.00
37778;BME280;23615;51.506;7.678;2023-05-02T09:20:56;100859.38;;;8.54;100.00
37778;BME280;23615;51.506;7.678;2023-05-02T09:23:31;100856.56;;;8.62;99.63
37778;BME280;23615;51.506;7.678;2023-05-02T09:25:57;100856.81;;;8.67;99.83
37778;BME280;23615;51.506;7.678;2023-05-02T09:28:40;100860.69;;;8.65;100.00
37778;BME280;23615;51.506;7.678;2023-05-02T09:31:07;100869.09;;;8.68;99.46
37778;BME280;23615;51.506;7.678;2023-05-02T09:33:34;100867.19;;;8.83;98.63
37778;BME280;23615;51.506;7.678;2023-05-02T09:35:59;100862.72;;;9.12;97.91
37778;BME280;23615;51.506;7.678;2023-05-02T09:38:24;100862.56;;;9.20;96.73
37778;BME280;23615;51.506;7.678;2023-05-02T09:40:52;100863.47;;;8.99;97.99
37778;BME280;23615;51.506;7.678;2023-05-02T09:43:18;100867.69;;;8.93;98.80
37778;BME280;23615;51.506;7.678;2023-05-02T09:45:58;100871.09;;;9.09;98.55
37778;BME280;23615;51.506;7.678;2023-05-02T09:48:24;100875.53;;;9.29;97.62
37778;BME280;23615;51.506;7.678;2023-05-02T09:50:50;100882.94;;;9.27;97.26
37778;BME280;23615;51.506;7.678;2023-05-02T09:53:15;100881.75;;;9.09;96.46
37778;BME280;23615;51.506;7.678;2023-05-02T09:55:40;100891.28;;;8.96;97.59
37778;BME280;23615;51.506;7.678;2023-05-02T09:58:06;100892.19;;;8.82;97.68
37778;BME280;23615;51.506;7.678;2023-05-02T10:00:42;100893.56;;;8.99;97.80
37778;BME280;23615;51.506;7.678;2023-05-02T10:03:09;100890.56;;;9.09;96.42
37778;BME280;23615;51.506;7.678;2023-05-02T10:05:36;100892.97;;;9.04;96.22
37778;BME280;23615;51.506;7.678;2023-05-02T10:08:04;100894.75;;;9.18;95.41
37778;BME280;23615;51.506;7.678;2023-05-02T10:10:38;100897.88;;;9.28;95.49
37778;BME280;23615;51.506;7.678;2023-05-02T10:13:06;100899.81;;;9.41;95.96
37778;BME280;23615;51.506;7.678;2023-05-02T10:15:32;100901.28;;;9.44;93.59
37778;BME280;23615;51.506;7.678;2023-05-02T10:17:59;100911.97;;;9.22;94.07
37778;BME280;23615;51.506;7.678;2023-05-02T10:20:30;100910.97;;;9.30;93.83
37778;BME280;23615;51.506;7.678;2023-05-02T10:22:59;100914.06;;;9.27;93.81
37778;BME280;23615;51.506;7.678;2023-05-02T10:25:26;100924.72;;;9.06;94.36
37778;BME280;23615;51.506;7.678;2023-05-02T10:27:51;100930.22;;;9.04;94.64
37778;BME280;23615;51.506;7.678;2023-05-02T10:30:17;100931.84;;;8.98;93.40
37778;BME280;23615;51.506;7.678;2023-05-02T10:32:45;100915.22;;;8.96;93.67
37778;BME280;23615;51.506;7.678;2023-05-02T10:35:12;100921.38;;;8.97;93.63
37778;BME280;23615;51.506;7.678;2023-05-02T10:37:38;100918.94;;;9.02;93.84
37778;BME280;23615;51.506;7.678;2023-05-02T10:40:09;100914.59;;;8.94;94.71
37778;BME280;23615;51.506;7.678;2023-05-02T10:42:41;100921.81;;;9.00;92.87
37778;BME280;23615;51.506;7.678;2023-05-02T10:45:37;100918.91;;;8.95;91.33
37778;BME280;23615;51.506;7.678;2023-05-02T10:48:19;100919.78;;;9.02;90.75
37778;BME280;23615;51.506;7.678;2023-05-02T10:50:47;100927.25;;;9.14;91.86
37778;BME280;23615;51.506;7.678;2023-05-02T10:53:37;100914.47;;;9.30;91.19
37778;BME280;23615;51.506;7.678;2023-05-02T10:56:20;100915.94;;;9.33;89.60
37778;BME280;23615;51.506;7.678;2023-05-02T10:58:47;100922.59;;;9.22;89.83
37778;BME280;23615;51.506;7.678;2023-05-02T11:04:01;100940.19;;;8.95;90.42
37778;BME280;23615;51.506;7.678;2023-05-02T11:06:29;100934.03;;;8.95;89.80
37778;BME280;23615;51.506;7.678;2023-05-02T11:09:30;100923.44;;;9.01;90.66
37778;BME280;23615;51.506;7.678;2023-05-02T11:11:56;100931.78;;;9.20;90.67
37778;BME280;23615;51.506;7.678;2023-05-02T11:19:21;100929.59;;;9.51;89.91
37778;BME280;23615;51.506;7.678;2023-05-02T11:21:46;100934.47;;;9.48;90.90
37778;BME280;23615;51.506;7.678;2023-05-02T11:24:37;100932.28;;;9.58;87.59
37778;BME280;23615;51.506;7.678;2023-05-02T11:30:04;100929.28;;;9.39;87.35
37778;BME280;23615;51.506;7.678;2023-05-02T11:35:15;100948.75;;;9.40;89.51
37778;BME280;23615;51.506;7.678;2023-05-02T11:37:41;100942.91;;;9.51;89.90
37778;BME280;23615;51.506;7.678;2023-05-02T11:40:11;100937.59;;;9.51;89.04
37778;BME280;23615;51.506;7.678;2023-05-02T11:42:36;100940.44;;;9.50;89.26
37778;BME280;23615;51.506;7.678;2023-05-02T11:45:02;100942.19;;;9.64;88.28
37778;BME280;23615;51.506;7.678;2023-05-02T11:47:27;100943.91;;;9.78;87.67
37778;BME280;23615;51.506;7.678;2023-05-02T11:50:03;100948.00;;;9.74;86.66
37778;BME280;23615;51.506;7.678;2023-05-02T11:52:29;100961.22;;;9.95;86.54
37778;BME280;23615;51.506;7.678;2023-05-02T11:54:55;100952.03;;;9.98;84.77
37778;BME280;23615;51.506;7.678;2023-05-02T11:57:21;100951.03;;;10.05;84.60
37778;BME280;23615;51.506;7.678;2023-05-02T11:59:54;100954.16;;;10.09;84.01
37778;BME280;23615;51.506;7.678;2023-05-02T12:02:41;100945.66;;;10.27;83.84
37778;BME280;23615;51.506;7.678;2023-05-02T12:05:07;100940.63;;;10.58;83.50
37778;BME280;23615;51.506;7.678;2023-05-02T12:07:38;100951.34;;;10.78;84.39
37778;BME280;23615;51.506;7.678;2023-05-02T12:10:05;100950.97;;;10.94;83.29
37778;BME280;23615;51.506;7.678;2023-05-02T12:12:31;100950.38;;;10.99;79.52
37778;BME280;23615;51.506;7.678;2023-05-02T12:14:56;100955.47;;;10.94;82.31
37778;BME280;23615;51.506;7.678;2023-05-02T12:17:22;100959.41;;;11.11;81.95
37778;BME280;23615;51.506;7.678;2023-05-02T12:19:48;100969.03;;;10.85;81.99
37778;BME280;23615;51.506;7.678;2023-05-02T12:22:14;100969.84;;;10.93;80.01
37778;BME280;23615;51.506;7.678;2023-05-02T12:24:40;100961.28;;;11.10;79.97
37778;BME280;23615;51.506;7.678;2023-05-02T12:27:13;100961.66;;;11.20;78.83
37778;BME280;23615;51.506;7.678;2023-05-02T12:29:47;100968.47;;;11.16;79.58
37778;BME280;23615;51.506;7.678;2023-05-02T12:32:14;100967.84;;;11.14;80.07
37778;BME280;23615;51.506;7.678;2023-05-02T12:34:40;100967.59;;;11.03;78.66
37778;BME280;23615;51.506;7.678;2023-05-02T12:37:07;100973.19;;;11.08;80.14
37778;BME280;23615;51.506;7.678;2023-05-02T12:39:36;100964.75;;;11.11;78.42
37778;BME280;23615;51.506;7.678;2023-05-02T12:42:12;100965.16;;;11.14;80.01
37778;BME280;23615;51.506;7.678;2023-05-02T12:44:38;100973.59;;;11.24;77.49
37778;BME280;23615;51.506;7.678;2023-05-02T12:47:04;100968.88;;;11.13;79.12
37778;BME280;23615;51.506;7.678;2023-05-02T12:49:30;100970.72;;;11.39;78.03
37778;BME280;23615;51.506;7.678;2023-05-02T12:51:55;100971.56;;;11.27;77.61
37778;BME280;23615;51.506;7.678;2023-05-02T12:54:21;100981.22;;;11.41;73.86
37778;BME280;23615;51.506;7.678;2023-05-02T12:56:47;100975.44;;;11.11;73.93
37778;BME280;23615;51.506;7.678;2023-05-02T12:59:29;100974.63;;;11.17;73.80
37778;BME280;23615;51.506;7.678;2023-05-02T13:01:56;100982.03;;;11.35;74.71
37778;BME280;23615;51.506;7.678;2023-05-02T13:04:32;100983.06;;;11.53;75.34
37778;BME280;23615;51.506;7.678;2023-05-02T13:06:57;100983.88;;;11.34;75.74
37778;BME280;23615;51.506;7.678;2023-05-02T13:09:23;100989.00;;;11.22;74.34
37778;BME280;23615;51.506;7.678;2023-05-02T13:11:48;100991.47;;;11.17;73.17
37778;BME280;23615;51.506;7.678;2023-05-02T13:14:13;101003.16;;;10.97;74.93
37778;BME280;23615;51.506;7.678;2023-05-02T13:16:38;100996.78;;;11.11;74.75
37778;BME280;23615;51.506;7.678;2023-05-02T13:19:04;100991.09;;;11.27;73.16
37778;BME280;23615;51.506;7.678;2023-05-02T13:21:29;100992.31;;;11.31;73.43